Time;durP1;ratioP1;P1;durP2;ratioP2;P2;SDS_P1;SDS_P2;PMS_P1;PMS_P2;Temp;Humidity;BMP_temperature;BMP_pressure;BME280_temperature;BME280_humidity;BME280_pressure;Samples;Min_cycle;Max_cycle;Signal;HPM_P1;HPM_P2
2022/08/29 00:00:56;;;;;;;12.97;11.77;;;;;;;19.47;75.76;92907.63;5030578;28;20193;-71
2022/08/29 00:03:21;;;;;;;13.32;12.05;;;;;;;19.49;76.33;92900.91;5031211;28;20217;-70
2022/08/29 00:05:47;;;;;;;14.73;11.55;;;;;;;19.49;75.96;92889.50;5029964;28;20236;-70
2022/08/29 00:08:12;;;;;;;12.82;11.85;;;;;;;19.50;76.06;92901.69;5030865;28;20228;-71
2022/08/29 00:10:39;;;;;;;16.40;13.00;;;;;;;19.27;77.02;92892.50;5030036;28;20222;-70
2022/08/29 00:13:08;;;;;;;13.07;11.80;;;;;;;19.25;77.02;92892.84;5017876;28;20190;-70
2022/08/29 00:15:35;;;;;;;15.33;12.63;;;;;;;19.30;76.95;92900.59;5010718;28;20301;-70
2022/08/29 00:18:00;;;;;;;13.20;11.83;;;;;;;19.05;77.63;92854.69;5031363;28;20222;-70
2022/08/29 00:20:30;;;;;;;13.10;12.00;;;;;;;19.29;77.25;92899.03;5030190;28;20237;-71
2022/08/29 00:22:55;;;;;;;13.77;12.53;;;;;;;19.15;78.04;92886.06;5030341;28;20244;-72
2022/08/29 00:25:21;;;;;;;14.07;11.87;;;;;;;19.08;78.18;92885.03;5030497;28;20230;-70
2022/08/29 00:27:47;;;;;;;13.57;12.20;;;;;;;19.20;77.93;92890.38;5029748;28;20197;-71
2022/08/29 00:30:14;;;;;;;12.85;11.75;;;;;;;19.17;78.06;92898.97;5030347;28;20223;-71
2022/08/29 00:32:40;;;;;;;13.35;11.60;;;;;;;19.05;79.12;92893.63;5030183;28;20208;-71
2022/08/29 00:35:31;;;;;;;13.57;12.23;;;;;;;18.96;79.86;92892.88;5029190;28;20293;-72
2022/08/29 00:37:57;;;;;;;14.33;12.87;;;;;;;18.97;79.59;92881.22;5022938;28;20214;-70
2022/08/29 00:40:30;;;;;;;14.10;12.10;;;;;;;18.95;78.97;92897.41;5030196;28;20230;-70
2022/08/29 00:42:55;;;;;;;13.20;11.93;;;;;;;18.95;78.58;92889.47;5029702;28;20221;-70
2022/08/29 00:45:22;;;;;;;14.17;12.80;;;;;;;19.00;78.10;92896.44;5030061;28;20237;-71
2022/08/29 00:47:56;;;;;;;13.50;12.20;;;;;;;18.96;78.27;92888.38;5030411;28;20182;-71
2022/08/29 00:50:32;;;;;;;15.60;11.00;;;;;;;19.01;77.52;92884.75;5029746;28;20244;-71
2022/08/29 00:52:59;;;;;;;13.57;12.03;;;;;;;19.00;77.53;92889.28;5010727;28;20201;-69
2022/08/29 00:55:27;;;;;;;13.73;12.13;;;;;;;19.01;76.78;92885.53;5010097;28;20318;-71
2022/08/29 00:58:00;;;;;;;12.83;11.67;;;;;;;18.91;77.96;92885.16;5029563;28;20185;-72
2022/08/29 01:00:27;;;;;;;13.63;12.27;;;;;;;18.84;77.79;92869.00;5029491;28;20221;-71
2022/08/29 01:02:53;;;;;;;13.93;11.83;;;;;;;18.83;77.29;92867.47;5029765;28;20221;-71
2022/08/29 01:05:19;;;;;;;12.20;10.93;;;;;;;18.85;77.18;92862.63;5029740;28;20248;-70
2022/08/29 01:07:46;;;;;;;13.00;11.90;;;;;;;18.86;77.49;92880.06;5029864;28;20470;-71
2022/08/29 01:12:14;;;;;;;13.03;11.70;;;;;;;18.83;77.30;92888.63;5029819;28;20228;-71
2022/08/29 01:12:58;;;;;;;13.00;11.57;;;;;;;18.67;76.36;92858.56;5017252;28;20193;-70
2022/08/29 01:15:25;;;;;;;12.70;10.77;;;;;;;18.75;76.45;92881.53;5010194;28;20237;-70
2022/08/29 01:17:53;;;;;;;12.63;11.30;;;;;;;18.78;76.61;92886.19;5029320;28;20206;-70
2022/08/29 01:20:30;;;;;;;13.07;11.87;;;;;;;18.84;75.81;92882.25;5029823;28;20229;-71
2022/08/29 01:23:06;;;;;;;12.57;11.27;;;;;;;18.83;76.22;92889.38;5029510;28;20221;-70
2022/08/29 01:25:36;;;;;;;13.03;11.77;;;;;;;18.79;75.78;92888.50;5028935;28;20702;-70
2022/08/29 01:28:11;;;;;;;13.30;11.07;;;;;;;18.81;75.89;92888.19;5011327;28;20187;-71
2022/08/29 01:31:06;;;;;;;13.37;12.07;;;;;;;18.74;76.39;92875.44;5029222;28;20230;-71
2022/08/29 01:33:44;;;;;;;12.33;11.43;;;;;;;18.84;76.85;92879.59;5029617;28;20193;-71
2022/08/29 01:36:13;;;;;;;13.93;11.53;;;;;;;18.80;77.05;92881.34;5034546;28;20210;-70
2022/08/29 01:38:40;;;;;;;14.27;11.33;;;;;;;18.77;76.65;92876.69;5029749;28;20413;-71
2022/08/29 01:41:06;;;;;;;12.97;11.17;;;;;;;18.77;75.98;92876.69;5029789;28;20185;-70
2022/08/29 01:43:38;;;;;;;11.33;10.40;;;;;;;18.74;76.10;92874.69;5029488;28;20235;-71
2022/08/29 01:46:04;;;;;;;19.33;11.17;;;;;;;18.65;77.08;92860.72;5030054;28;20196;-70
2022/08/29 01:48:29;;;;;;;13.80;11.93;;;;;;;18.67;77.55;92875.19;5029891;28;20177;-71
2022/08/29 01:50:55;;;;;;;12.37;11.47;;;;;;;18.63;77.79;92873.53;5029486;28;20187;-71
2022/08/29 01:53:21;;;;;;;16.47;11.70;;;;;;;18.49;78.32;92878.28;5029746;28;20223;-70
2022/08/29 01:55:46;;;;;;;13.20;12.00;;;;;;;18.57;77.99;92880.06;5029175;28;20228;-71
2022/08/29 01:58:12;;;;;;;13.03;11.53;;;;;;;18.54;78.40;92881.50;5029575;28;20723;-71
2022/08/29 02:00:38;;;;;;;13.67;12.57;;;;;;;18.50;78.49;92880.59;5029563;28;20239;-70
2022/08/29 02:03:03;;;;;;;14.27;11.80;;;;;;;18.52;78.22;92885.56;5050142;28;20205;-71
2022/08/29 02:05:29;;;;;;;12.60;11.50;;;;;;;18.39;77.91;92865.41;5052664;28;20219;-70
2022/08/29 02:07:56;;;;;;;15.67;12.10;;;;;;;18.44;77.56;92892.47;5052222;28;20914;-72
2022/08/29 02:10:21;;;;;;;12.33;10.97;;;;;;;18.44;76.48;92865.22;5052572;28;20229;-70
2022/08/29 02:12:47;;;;;;;13.67;12.23;;;;;;;18.52;77.11;92894.25;5027876;28;20205;-71
2022/08/29 02:15:12;;;;;;;14.33;11.67;;;;;;;18.30;77.58;92854.09;5032940;28;20247;-71
2022/08/29 02:17:38;;;;;;;13.07;11.77;;;;;;;18.47;78.32;92896.31;5032870;28;20188;-71
2022/08/29 02:20:07;;;;;;;12.90;11.80;;;;;;;18.41;78.86;92887.03;5032644;28;20225;-70
2022/08/29 02:22:32;;;;;;;13.23;11.87;;;;;;;18.38;79.03;92879.72;5048767;28;21044;-70
2022/08/29 02:24:58;;;;;;;12.73;11.60;;;;;;;18.15;80.17;92865.22;5046020;28;20223;-72
2022/08/29 02:27:23;;;;;;;12.17;11.13;;;;;;;18.34;79.61;92892.78;5032615;28;20194;-71
2022/08/29 02:29:49;;;;;;;13.57;12.47;;;;;;;18.25;79.90;92889.41;5032370;28;20225;-71
2022/08/29 02:32:15;;;;;;;13.00;11.87;;;;;;;18.23;79.32;92869.66;5032691;28;20188;-71
2022/08/29 02:34:45;;;;;;;12.07;11.00;;;;;;;18.27;79.97;92891.72;5032298;28;20267;-71
2022/08/29 02:37:11;;;;;;;11.90;11.00;;;;;;;18.26;80.47;92890.94;5032343;28;20192;-72
2022/08/29 02:39:37;;;;;;;13.30;12.17;;;;;;;18.28;80.50;92887.97;5032240;28;20228;-71
2022/08/29 02:42:03;;;;;;;14.03;12.73;;;;;;;18.03;80.90;92863.22;5032051;28;20230;-70
2022/08/29 02:44:28;;;;;;;20.73;13.77;;;;;;;18.18;80.75;92889.09;5031984;28;20242;-72
2022/08/29 02:46:54;;;;;;;14.67;12.20;;;;;;;18.22;80.52;92890.03;5032576;28;20232;-69
2022/08/29 02:49:19;;;;;;;12.60;11.57;;;;;;;18.18;80.99;92891.75;5031969;28;20230;-70
2022/08/29 02:51:45;;;;;;;19.00;12.47;;;;;;;18.03;81.19;92865.09;5031988;28;20196;-71
2022/08/29 02:54:11;;;;;;;14.93;11.80;;;;;;;17.76;80.86;92860.22;5031986;28;20233;-70
2022/08/29 02:56:37;;;;;;;12.77;11.43;;;;;;;18.05;81.60;92895.41;5031721;28;20199;-71
2022/08/29 02:59:03;;;;;;;13.70;12.30;;;;;;;18.10;81.28;92899.72;5031435;28;20247;-71
2022/08/29 03:01:30;;;;;;;13.57;12.53;;;;;;;18.19;80.99;92900.47;5031882;28;20223;-71
2022/08/29 03:03:55;;;;;;;12.37;11.30;;;;;;;18.19;80.35;92898.59;5031589;28;20226;-71
2022/08/29 03:06:21;;;;;;;12.87;11.70;;;;;;;18.26;79.93;92906.03;5031802;28;20185;-71
2022/08/29 03:08:47;;;;;;;20.70;12.50;;;;;;;18.22;80.00;92913.03;5031405;28;20232;-71
2022/08/29 03:11:13;;;;;;;13.90;12.67;;;;;;;18.14;79.96;92898.00;5031636;28;20203;-71
2022/08/29 03:13:38;;;;;;;15.83;12.47;;;;;;;18.21;80.56;92911.50;5031249;28;20227;-72
2022/08/29 03:16:04;;;;;;;14.20;12.73;;;;;;;18.23;81.11;92911.94;5034754;28;20215;-70
2022/08/29 03:18:30;;;;;;;14.63;13.17;;;;;;;18.11;82.36;92919.78;5051679;28;20187;-71
2022/08/29 03:20:56;;;;;;;13.63;12.40;;;;;;;18.09;82.26;92916.66;5050365;28;20200;-71
2022/08/29 03:23:21;;;;;;;12.40;11.23;;;;;;;18.19;80.49;92922.41;5051832;28;20207;-70
2022/08/29 03:25:47;;;;;;;13.37;12.27;;;;;;;18.18;81.31;92920.81;5048789;28;20242;-71
2022/08/29 03:28:12;;;;;;;13.23;12.23;;;;;;;18.11;81.38;92896.00;5031855;28;20211;-72
2022/08/29 03:30:38;;;;;;;14.93;13.43;;;;;;;18.13;82.93;92922.88;5031081;28;20225;-69
2022/08/29 03:33:04;;;;;;;14.20;12.87;;;;;;;18.13;82.86;92922.88;5031741;28;20195;-71
2022/08/29 03:35:30;;;;;;;13.83;12.63;;;;;;;18.02;81.77;92911.09;5031394;28;20230;-71
2022/08/29 03:37:57;;;;;;;14.17;12.83;;;;;;;18.15;82.11;92924.09;5030221;28;20208;-70
2022/08/29 03:40:23;;;;;;;14.27;12.97;;;;;;;18.21;82.00;92924.72;5031211;28;20260;-70
2022/08/29 03:42:48;;;;;;;15.53;12.50;;;;;;;18.13;82.00;92909.66;5040968;28;20227;-72
2022/08/29 03:45:16;;;;;;;13.93;11.77;;;;;;;18.17;82.31;92929.06;5030986;28;20228;-70
2022/08/29 03:47:42;;;;;;;14.80;13.50;;;;;;;18.17;82.91;92923.78;5031209;28;20184;-71
2022/08/29 03:50:08;;;;;;;13.80;12.53;;;;;;;18.07;83.15;92929.44;5030843;28;20248;-71
2022/08/29 03:52:33;;;;;;;15.23;13.67;;;;;;;18.16;82.13;92932.81;5030509;28;20329;-72
2022/08/29 03:54:59;;;;;;;14.40;12.97;;;;;;;18.09;83.37;92929.88;5031065;28;20221;-70
2022/08/29 03:57:25;;;;;;;13.63;12.60;;;;;;;18.07;83.83;92918.88;5030752;28;20189;-71
2022/08/29 03:59:51;;;;;;;14.80;13.50;;;;;;;18.07;83.58;92924.16;5030372;28;20235;-71
2022/08/29 04:02:17;;;;;;;14.03;12.73;;;;;;;17.97;83.82;92908.63;5031114;28;20229;-71
2022/08/29 04:07:27;;;;;;;16.00;14.10;;;;;;;18.20;84.02;92936.38;5030823;28;20956;-71
2022/08/29 04:09:53;;;;;;;18.20;13.77;;;;;;;17.87;85.26;92922.19;5030627;28;20319;-70
2022/08/29 04:12:18;;;;;;;14.83;13.50;;;;;;;17.96;85.39;92923.69;5030886;28;20204;-70
2022/08/29 04:14:43;;;;;;;15.30;13.67;;;;;;;17.93;86.26;92940.19;5030251;28;20223;-72
2022/08/29 04:17:09;;;;;;;14.17;12.93;;;;;;;17.90;86.05;92927.59;5040222;28;20198;-71
2022/08/29 04:19:35;;;;;;;14.17;12.23;;;;;;;18.19;85.09;92938.25;5030242;28;20231;-70
2022/08/29 04:22:03;;;;;;;15.50;14.00;;;;;;;18.13;84.45;92925.53;5030182;28;20199;-70
2022/08/29 04:24:32;;;;;;;13.90;12.50;;;;;;;18.23;84.87;92938.38;5030308;28;20232;-70
2022/08/29 04:26:58;;;;;;;13.67;12.37;;;;;;;18.26;85.36;92941.16;5029761;28;20189;-70
2022/08/29 04:29:24;;;;;;;14.50;13.20;;;;;;;18.30;84.88;92938.66;5030188;28;20242;-71
2022/08/29 04:31:50;;;;;;;14.73;13.27;;;;;;;18.40;84.84;92941.75;5040696;28;20256;-71
2022/08/29 04:34:16;;;;;;;14.23;12.73;;;;;;;18.40;84.37;92946.25;5050190;28;20236;-71
2022/08/29 04:36:44;;;;;;;13.97;12.57;;;;;;;18.41;83.79;92940.66;5040233;28;20204;-72
2022/08/29 04:39:11;;;;;;;13.87;12.43;;;;;;;18.29;83.96;92910.69;5030078;28;20227;-71
2022/08/29 04:41:37;;;;;;;14.23;12.70;;;;;;;18.62;83.17;92944.16;5038689;28;20176;-70
2022/08/29 04:44:03;;;;;;;14.43;12.93;;;;;;;18.80;82.54;92969.41;5030983;28;20222;-71
2022/08/29 04:46:29;;;;;;;14.37;13.17;;;;;;;18.94;82.22;92974.47;5030362;28;20192;-70
2022/08/29 04:48:55;;;;;;;13.73;12.30;;;;;;;18.99;81.59;92966.34;5029920;28;20224;-70
2022/08/29 04:51:22;;;;;;;15.53;13.17;;;;;;;19.04;81.30;92958.22;5036343;28;20183;-70
2022/08/29 04:53:50;;;;;;;16.57;13.67;;;;;;;19.21;81.17;92967.94;5049403;28;20232;-70
2022/08/29 04:56:15;;;;;;;15.57;14.10;;;;;;;19.46;80.29;92980.22;5049514;28;20201;-70
2022/08/29 04:58:43;;;;;;;16.07;14.47;;;;;;;19.69;79.62;92984.84;5049709;28;20184;-70
2022/08/29 05:01:11;;;;;;;15.63;14.13;;;;;;;19.87;79.28;92972.22;5044693;28;20212;-71
2022/08/29 05:03:37;;;;;;;14.93;13.63;;;;;;;20.00;79.04;92977.25;5029584;28;20216;-70
2022/08/29 05:06:09;;;;;;;15.17;13.23;;;;;;;19.89;78.41;92930.28;5029837;28;20201;-70
2022/08/29 05:08:36;;;;;;;21.10;14.20;;;;;;;20.39;76.75;92983.88;5029677;28;20269;-70
2022/08/29 05:11:04;;;;;;;14.60;13.05;;;;;;;20.60;75.47;92985.38;5029904;28;20184;-71
2022/08/29 05:13:29;;;;;;;16.23;13.50;;;;;;;20.71;72.79;92988.34;5029827;28;20178;-70
2022/08/29 05:15:55;;;;;;;16.45;13.60;;;;;;;20.90;71.40;92993.09;5032388;28;20184;-72
2022/08/29 05:18:20;;;;;;;13.23;11.88;;;;;;;20.88;68.05;92987.34;5050474;28;20186;-70
2022/08/29 05:20:47;;;;;;;15.45;13.63;;;;;;;21.06;67.12;92999.34;5048435;28;20248;-71
2022/08/29 05:23:15;;;;;;;17.88;12.85;;;;;;;21.06;69.30;92999.34;5049682;28;20205;-71
2022/08/29 05:25:42;;;;;;;17.70;11.98;;;;;;;21.27;66.83;93005.28;5048687;28;20215;-71
2022/08/29 05:28:10;;;;;;;14.35;12.15;;;;;;;21.90;65.46;93007.13;5049962;28;20185;-70
2022/08/29 05:30:37;;;;;;;17.02;12.93;;;;;;;21.98;65.11;93004.34;5048299;28;20754;-71
2022/08/29 05:33:02;;;;;;;16.15;12.40;;;;;;;22.16;63.85;93000.25;5030123;28;20190;-71
2022/08/29 05:35:28;;;;;;;14.23;12.93;;;;;;;22.33;63.54;92993.09;5029683;28;20311;-69
2022/08/29 05:37:53;;;;;;;14.07;12.88;;;;;;;22.58;61.66;93019.28;5029934;28;20334;-70
2022/08/29 05:40:19;;;;;;;12.98;11.88;;;;;;;22.66;62.74;93010.34;5033602;28;20233;-71
2022/08/29 05:42:44;;;;;;;13.65;12.45;;;;;;;22.68;65.42;93018.00;5033447;28;20208;-71
2022/08/29 05:45:10;;;;;;;16.27;13.73;;;;;;;22.59;65.19;92990.75;5033420;28;20229;-70
2022/08/29 05:47:35;;;;;;;15.48;13.93;;;;;;;22.79;64.47;93019.78;5050351;28;20184;-71
2022/08/29 05:50:01;;;;;;;14.48;13.18;;;;;;;22.65;65.09;93021.31;5052868;28;20259;-70
2022/08/29 05:52:27;;;;;;;16.42;13.85;;;;;;;22.69;65.14;93025.63;5037408;28;20189;-71
2022/08/29 05:54:53;;;;;;;14.93;13.52;;;;;;;22.35;67.63;93028.88;5033276;28;20292;-71
2022/08/29 05:57:21;;;;;;;16.60;14.02;;;;;;;22.59;66.48;93023.47;5033377;28;20183;-71
2022/08/29 05:59:49;;;;;;;16.92;15.32;;;;;;;22.79;65.66;93027.00;5033056;28;20767;-71
2022/08/29 06:02:16;;;;;;;18.38;14.20;;;;;;;22.27;67.22;93034.38;5033259;28;20258;-71
2022/08/29 06:04:41;;;;;;;18.13;14.57;;;;;;;23.35;63.12;93018.50;5032556;28;20299;-71
2022/08/29 06:07:08;;;;;;;15.65;13.98;;;;;;;24.09;61.61;93030.75;5045605;28;20250;-71
2022/08/29 06:09:34;;;;;;;16.65;14.98;;;;;;;24.17;61.40;93037.00;5049510;28;20261;-71
2022/08/29 06:11:59;;;;;;;19.85;13.88;;;;;;;23.97;61.76;93027.47;5033136;28;20213;-72
2022/08/29 06:14:25;;;;;;;20.00;13.43;;;;;;;23.55;64.15;93027.28;5032772;28;20241;-70
2022/08/29 06:16:52;;;;;;;22.83;14.57;;;;;;;23.40;64.27;93030.75;5033033;28;20181;-70
2022/08/29 06:19:17;;;;;;;17.23;13.20;;;;;;;23.28;65.29;93033.53;5033021;28;20237;-71
2022/08/29 06:21:42;;;;;;;18.88;14.30;;;;;;;22.72;66.28;93038.25;5032762;28;20213;-70
2022/08/29 06:24:08;;;;;;;22.25;14.95;;;;;;;23.32;63.84;93021.06;5032642;28;20233;-72
2022/08/29 06:26:34;;;;;;;18.85;14.25;;;;;;;22.93;65.17;93027.34;5032704;28;20214;-70
2022/08/29 06:29:03;;;;;;;25.52;14.73;;;;;;;23.54;64.10;93037.19;5032419;28;20289;-70
2022/08/29 06:31:28;;;;;;;26.08;14.93;;;;;;;23.74;62.41;93022.78;5032660;28;20241;-71
2022/08/29 06:33:57;;;;;;;16.70;14.88;;;;;;;24.01;61.73;93029.06;5032024;28;20233;-71
2022/08/29 06:36:26;;;;;;;16.08;14.43;;;;;;;23.73;62.09;93020.47;5038410;28;20194;-71
2022/08/29 06:38:54;;;;;;;17.50;15.07;;;;;;;23.74;61.90;93036.09;5031985;28;20228;-71
2022/08/29 06:41:20;;;;;;;20.88;14.13;;;;;;;23.59;62.35;93028.94;5032463;28;20181;-73
2022/08/29 06:43:45;;;;;;;17.73;14.80;;;;;;;23.96;61.47;93036.53;5031923;28;21231;-71
2022/08/29 06:46:23;;;;;;;15.07;13.88;;;;;;;24.05;60.21;93026.47;5032332;28;20170;-71
2022/08/29 06:48:48;;;;;;;15.65;14.00;;;;;;;24.14;59.52;93037.72;5031863;28;20224;-71
2022/08/29 06:51:14;;;;;;;17.48;13.52;;;;;;;23.61;61.41;93036.59;5031944;28;20219;-70
2022/08/29 06:53:39;;;;;;;18.05;14.07;;;;;;;23.77;61.69;93045.28;5031659;28;20180;-71
2022/08/29 06:56:05;;;;;;;20.33;14.25;;;;;;;24.08;60.10;93045.22;5036248;28;20219;-72
2022/08/29 06:58:31;;;;;;;17.77;15.73;;;;;;;24.10;60.38;93044.84;5051846;28;20180;-72
2022/08/29 07:00:57;;;;;;;17.58;15.23;;;;;;;24.19;60.55;93045.44;5051225;28;20173;-71
2022/08/29 07:03:23;;;;;;;17.35;14.00;;;;;;;24.00;60.64;93059.53;5052092;28;20215;-72
2022/08/29 07:05:52;;;;;;;18.58;15.10;;;;;;;24.39;59.25;93063.00;5041883;28;20221;-71
2022/08/29 07:08:18;;;;;;;25.92;15.48;;;;;;;23.95;60.20;93054.44;5032153;28;20312;-71
2022/08/29 07:10:44;;;;;;;20.27;15.07;;;;;;;23.57;61.19;93063.16;5032337;28;20222;-71
2022/08/29 07:13:09;;;;;;;21.58;15.63;;;;;;;24.15;60.12;93039.25;5051847;28;20185;-70
2022/08/29 07:15:35;;;;;;;19.00;14.70;;;;;;;23.81;61.06;93040.03;5050195;28;20230;-71
2022/08/29 07:18:00;;;;;;;16.30;13.80;;;;;;;24.25;58.98;93049.38;5052069;28;20214;-71
2022/08/29 07:20:26;;;;;;;21.98;15.20;;;;;;;23.73;59.88;93039.91;5051184;28;20225;-69
2022/08/29 07:22:51;;;;;;;17.52;15.75;;;;;;;23.80;61.61;93062.50;5050598;28;20211;-70
2022/08/29 07:25:19;;;;;;;16.90;14.50;;;;;;;23.10;64.20;93046.41;5051091;28;20258;-71
2022/08/29 07:27:45;;;;;;;24.65;15.90;;;;;;;23.33;64.55;93066.03;5050783;28;20195;-70
2022/08/29 07:30:15;;;;;;;16.02;14.35;;;;;;;23.59;62.82;93057.47;5051152;28;20228;-70
2022/08/29 07:32:43;;;;;;;17.50;14.65;;;;;;;24.48;60.76;93066.22;5033566;28;20201;-70
2022/08/29 07:35:10;;;;;;;17.75;15.93;;;;;;;24.01;62.08;93063.75;5031858;28;20229;-71
2022/08/29 07:37:35;;;;;;;18.92;16.17;;;;;;;24.85;59.10;93057.41;5031047;28;20192;-71
2022/08/29 07:40:01;;;;;;;24.25;16.13;;;;;;;25.10;57.19;93079.19;5030904;28;20770;-71
2022/08/29 07:42:26;;;;;;;20.30;14.95;;;;;;;24.45;60.05;93073.00;5030931;28;20199;-71
2022/08/29 07:44:52;;;;;;;19.05;15.75;;;;;;;24.86;58.14;93090.97;5030688;28;20229;-71
2022/08/29 07:47:17;;;;;;;23.17;15.07;;;;;;;24.56;59.07;93083.91;5031556;28;20192;-70
2022/08/29 07:49:43;;;;;;;26.05;14.50;;;;;;;24.44;59.95;93081.38;5030709;28;20258;-71
2022/08/29 07:52:09;;;;;;;19.27;14.60;;;;;;;24.93;59.38;93093.00;5031056;28;20220;-72
2022/08/29 07:54:34;;;;;;;20.67;15.02;;;;;;;24.69;58.48;93072.75;5030843;28;20307;-71
2022/08/29 07:56:59;;;;;;;18.30;14.55;;;;;;;24.61;59.15;93079.03;5042783;28;20184;-71
2022/08/29 07:59:25;;;;;;;21.40;15.13;;;;;;;24.19;59.88;93082.81;5050707;28;20236;-72
2022/08/29 08:01:50;;;;;;;16.33;14.63;;;;;;;25.11;58.39;93081.50;5038739;28;20189;-71
2022/08/29 08:04:16;;;;;;;18.10;13.48;;;;;;;25.26;57.04;93063.81;5030440;28;20239;-71
2022/08/29 08:06:42;;;;;;;15.57;13.93;;;;;;;24.75;59.81;93046.50;5030768;28;20337;-71
2022/08/29 08:09:08;;;;;;;27.13;14.48;;;;;;;24.69;59.87;93070.06;5030679;28;20771;-71
2022/08/29 08:11:35;;;;;;;16.27;14.05;;;;;;;24.88;58.19;93080.72;5037343;28;20193;-71
2022/08/29 08:14:02;;;;;;;17.38;14.00;;;;;;;24.63;57.89;93023.38;5030504;28;20226;-72
2022/08/29 08:16:28;;;;;;;15.75;14.00;;;;;;;24.84;58.89;93068.44;5030821;28;20201;-71
2022/08/29 08:18:55;;;;;;;14.65;13.35;;;;;;;25.24;58.17;93064.16;5030483;28;20226;-71
2022/08/29 08:21:21;;;;;;;19.35;13.88;;;;;;;25.49;56.67;93043.19;5030462;28;20247;-71
2022/08/29 08:23:47;;;;;;;15.65;13.88;;;;;;;25.38;56.93;93068.19;5030322;28;20226;-72
2022/08/29 08:26:13;;;;;;;16.08;13.00;;;;;;;25.15;57.16;93070.88;5030784;28;20197;-71
2022/08/29 08:28:41;;;;;;;19.67;13.55;;;;;;;25.53;56.55;93070.72;5030381;28;20195;-71
2022/08/29 08:31:09;;;;;;;14.00;12.40;;;;;;;25.85;56.07;93063.97;5030503;28;20215;-71
2022/08/29 08:33:38;;;;;;;13.82;12.65;;;;;;;25.92;55.99;93058.69;5029252;28;20188;-71
2022/08/29 08:36:18;;;;;;;13.68;12.27;;;;;;;25.38;57.42;93076.22;5030269;28;20174;-71
2022/08/29 08:38:44;;;;;;;13.63;12.23;;;;;;;25.69;57.04;93067.91;5010649;28;20384;-71
2022/08/29 08:41:24;;;;;;;13.63;12.30;;;;;;;26.44;53.58;93072.00;5015821;28;20351;-71
2022/08/29 08:43:55;;;;;;;13.68;12.48;;;;;;;26.16;57.18;93071.66;5029926;28;20233;-71
2022/08/29 08:46:46;;;;;;;13.90;11.65;;;;;;;25.78;56.16;93049.69;5030032;28;20195;-71
2022/08/29 08:49:34;;;;;;;20.75;11.85;;;;;;;26.05;53.79;93061.94;5030080;28;20230;-72
2022/08/29 08:52:04;;;;;;;14.35;13.02;;;;;;;25.96;55.00;93051.47;5030215;28;20221;-71
2022/08/29 08:54:38;;;;;;;13.52;12.25;;;;;;;25.95;56.16;93059.84;5029925;28;20230;-70
2022/08/29 08:57:07;;;;;;;14.18;12.88;;;;;;;25.80;54.90;93060.81;5028635;28;20286;-71
2022/08/29 08:59:41;;;;;;;14.77;12.38;;;;;;;25.75;54.22;93061.88;5029742;28;20237;-71
2022/08/29 09:02:28;;;;;;;17.05;12.70;;;;;;;25.43;57.79;93052.66;5032928;28;20205;-71
2022/08/29 09:04:56;;;;;;;13.15;12.07;;;;;;;25.71;56.88;93057.63;5029737;28;20238;-71
2022/08/29 09:07:32;;;;;;;13.95;12.52;;;;;;;25.51;55.74;93045.50;5044507;28;20229;-71
2022/08/29 09:10:33;;;;;;;13.50;12.35;;;;;;;25.40;58.45;93056.03;5049541;28;20280;-71
2022/08/29 09:13:04;;;;;;;13.80;12.35;;;;;;;25.78;55.59;93055.81;4998005;28;20203;-70
2022/08/29 09:15:38;;;;;;;16.90;13.15;;;;;;;25.62;56.50;93051.78;5025843;28;20230;-71
2022/08/29 09:18:08;;;;;;;15.98;13.23;;;;;;;25.65;56.26;93062.50;5014571;28;20253;-71
2022/08/29 09:20:37;;;;;;;14.18;12.65;;;;;;;26.06;56.98;93056.22;5013960;28;20247;-70
2022/08/29 09:23:06;;;;;;;15.13;13.13;;;;;;;26.04;56.40;93047.78;5033955;28;20206;-71
2022/08/29 09:25:34;;;;;;;17.33;12.50;;;;;;;26.33;55.25;93028.25;5033284;28;20229;-71
2022/08/29 09:28:02;;;;;;;13.05;11.85;;;;;;;26.48;56.08;93055.97;5014517;28;20179;-72
2022/08/29 09:30:32;;;;;;;15.50;12.63;;;;;;;26.15;56.27;93047.94;5013732;28;20219;-71
2022/08/29 09:33:15;;;;;;;14.90;13.50;;;;;;;25.61;56.67;93034.94;5029488;28;20191;-72
2022/08/29 09:35:51;;;;;;;15.68;13.50;;;;;;;25.76;57.57;93031.31;5014626;28;20230;-70
2022/08/29 09:38:16;;;;;;;15.25;13.65;;;;;;;26.15;56.82;93043.34;5033805;28;20204;-71
2022/08/29 09:40:44;;;;;;;16.50;13.45;;;;;;;26.04;55.84;93042.44;5034098;28;20226;-71
2022/08/29 09:43:18;;;;;;;14.52;13.10;;;;;;;25.80;56.33;93032.16;5041808;28;20221;-71
2022/08/29 09:46:02;;;;;;;13.68;12.27;;;;;;;25.74;57.00;93030.16;5031835;28;20222;-71
2022/08/29 09:48:27;;;;;;;13.20;11.82;;;;;;;25.63;55.29;93026.56;5033543;28;20194;-71
2022/08/29 09:51:09;;;;;;;12.90;11.80;;;;;;;25.72;55.57;93030.50;5032711;28;20178;-71
2022/08/29 09:53:35;;;;;;;13.18;11.93;;;;;;;25.82;54.91;93027.19;5032783;28;20202;-71
2022/08/29 09:56:06;;;;;;;12.30;11.15;;;;;;;25.99;55.52;92999.94;5032245;28;20186;-72
2022/08/29 09:58:38;;;;;;;13.55;12.18;;;;;;;26.03;55.16;93032.88;5033194;28;20190;-71
2022/08/29 10:01:03;;;;;;;13.50;12.38;;;;;;;26.00;55.50;93030.91;5035983;28;20231;-71
2022/08/29 10:03:33;;;;;;;14.15;11.70;;;;;;;25.72;55.13;93035.88;5032943;28;20266;-72
2022/08/29 10:06:19;;;;;;;12.90;11.90;;;;;;;25.43;55.02;93017.88;5032858;28;20187;-71
2022/08/29 10:09:02;;;;;;;17.42;12.18;;;;;;;25.24;56.51;93031.31;5032676;28;20203;-73
2022/08/29 10:11:59;;;;;;;13.65;12.35;;;;;;;24.88;55.41;93016.59;5039851;28;20186;-71
2022/08/29 10:14:39;;;;;;;16.05;11.85;;;;;;;25.22;56.28;93017.53;5027767;28;20249;-70
2022/08/29 10:20:12;;;;;;;12.85;11.48;;;;;;;25.20;56.79;92987.69;5033006;28;20249;-71
2022/08/29 10:22:43;;;;;;;13.32;11.95;;;;;;;25.17;55.08;92996.44;5049481;28;20181;-71
2022/08/29 10:25:15;;;;;;;13.23;11.93;;;;;;;25.23;54.35;93009.13;5051339;28;20233;-71
2022/08/29 10:27:45;;;;;;;14.45;11.68;;;;;;;25.10;52.25;93004.34;5034466;28;20187;-71
2022/08/29 10:30:21;;;;;;;13.30;11.95;;;;;;;25.06;54.67;93008.84;5032554;28;20331;-72
2022/08/29 10:33:08;;;;;;;13.48;12.15;;;;;;;24.99;54.86;93008.75;5032069;28;20204;-71
2022/08/29 10:35:48;;;;;;;16.08;12.55;;;;;;;24.56;57.59;92991.22;5032067;28;20261;-71
2022/08/29 10:38:32;;;;;;;18.35;11.70;;;;;;;24.52;58.85;92990.38;5032759;28;20254;-71
2022/08/29 10:41:22;;;;;;;13.07;11.98;;;;;;;24.64;59.59;92989.47;5035325;28;20220;-71
2022/08/29 10:44:03;;;;;;;17.08;13.82;;;;;;;24.58;60.14;92985.50;5035394;28;20293;-71
2022/08/29 10:46:35;;;;;;;14.07;12.60;;;;;;;24.50;61.42;92989.97;5032221;28;20194;-71
2022/08/29 10:49:09;;;;;;;15.02;13.68;;;;;;;24.62;61.82;92989.78;5031112;28;20349;-71
2022/08/29 10:51:37;;;;;;;14.18;12.88;;;;;;;24.59;64.02;93001.19;5040385;28;20192;-70
2022/08/29 10:54:11;;;;;;;16.20;13.38;;;;;;;24.58;64.72;92991.63;5051733;28;20233;-71
2022/08/29 10:56:43;;;;;;;15.38;13.10;;;;;;;24.40;66.23;92989.78;5042015;28;20190;-71
2022/08/29 10:59:29;;;;;;;16.98;13.82;;;;;;;24.28;68.53;92984.59;5030839;28;20238;-71
2022/08/29 11:02:20;;;;;;;23.70;15.95;;;;;;;24.31;72.74;92986.56;5030551;28;20197;-71
2022/08/29 11:04:52;;;;;;;23.40;14.77;;;;;;;24.33;75.16;92982.41;5031631;28;20269;-70
2022/08/29 11:07:38;;;;;;;18.27;14.65;;;;;;;24.28;76.19;92976.59;5031861;28;20234;-73
2022/08/29 11:10:04;;;;;;;17.70;15.80;;;;;;;24.26;77.11;92976.97;5031252;28;20263;-70
2022/08/29 11:12:44;;;;;;;19.15;17.17;;;;;;;24.29;77.43;92970.13;5022942;28;20195;-72
2022/08/29 11:15:23;;;;;;;16.38;14.82;;;;;;;24.18;78.45;92963.81;5011608;28;20234;-71
2022/08/29 11:17:57;;;;;;;24.25;17.52;;;;;;;24.38;76.76;92944.75;5030832;28;20202;-70
2022/08/29 11:20:35;;;;;;;19.52;15.18;;;;;;;24.66;72.19;92955.16;5031407;28;20241;-71
2022/08/29 11:23:13;;;;;;;13.63;12.20;;;;;;;24.96;65.26;92929.31;5031328;28;20213;-71
2022/08/29 11:25:40;;;;;;;15.05;13.32;;;;;;;25.43;65.63;92940.34;5031515;28;20232;-72
2022/08/29 11:28:12;;;;;;;12.95;11.85;;;;;;;25.99;60.61;92938.41;5051516;28;20209;-71
2022/08/29 11:30:42;;;;;;;13.30;11.65;;;;;;;26.33;54.49;92934.56;5050364;28;20340;-71